Aeroporto :
LOGIN :

Iscrizione | Disclaimer

   EN    FR    IT 

 










Sommario :    VFR   VFR Marginale   IFR   IFR Intensivo   IFR Molto Intensivo
Visibilità : 
Base nubi : 
>= 8 km
>= 3000ft
5 / 8 km
1000 / 3000 ft
1500m / 5 km
500 / 1000 ft
800 / 1500m
200 / 500 ft
< 800m
< 200 ft
Simboli :   Temporali  Nebbia  Neve Forte  Precipitazioni Forti  Vento > 20 kt
SIGMETs :   Varie  Temporali  Ghiacco  Turbolenza  Onda orograficha  Ceneri Vulcaniche






- Altitudine del aeroporto : 399 ft
- Codice IATA : KIV


LUKK - Chisinau Int.

ULTIMO METAR :
  • 032000Z VRB02KT CAVOK 08/M05 Q1015 R08/CLRD// NOSIG

METARs OBSOLETI :
  • 031930Z 22010KT CAVOK 09/M05 Q1014 R08/CLRD// NOSIG
  • 031900Z 20008KT 160V220 CAVOK 09/M04 Q1014 R08/D NOSIG
  • 031830Z 22008KT 180V250 CAVOK 10/M03 Q1013 R08/D NOSIG
  • 031800Z 17004KT 110V250 CAVOK 09/M03 Q1013 R08/CLRD// NOSIG
  • 031730Z 27003KT CAVOK 05/M04 Q1012 R08/CLRD// NOSIG

TAF TAF LUKK
Valido dal 03 a 18 ore il 04 a 18 ore UTC


031720Z 0318/0418 27004KT CAVOK
BECMG 0405/0407 35004KT
BECMG 0410/0412 05006KT



MetMap, La meteo Aeronautica in un colpo d'occhio ! - Copyright ORBIFLY Dicembre 2007 - Disclaimer

ORBIFLY MET'MAP TEAM :

Programmazione e sviluppo : Alexandra Zaïnal
Concezione : Baudouin d'Aumeries
Aiuto per la programmazione : Marc-Olivier Méhu
Supporto tecnico e logistico : Manuel Goepfert
Aiuto per la traduzione : Arnaldo La Scala

Contatto : metmap@orbifly.com




FONTI E CREDITI :

   NOAA